Time;durP1;ratioP1;P1;durP2;ratioP2;P2;SDS_P1;SDS_P2;PMS_P1;PMS_P2;Temp;Humidity;BMP_temperature;BMP_pressure;BME280_temperature;BME280_humidity;BME280_pressure;Samples;Min_cycle;Max_cycle;Signal;HPM_P1;HPM_P2
2021/12/02 00:00:11;;;;;;;0.50;0.50;;;17.50;47.60;;;;;;5149489;27;46919;-19
2021/12/02 00:02:38;;;;;;;0.70;0.70;;;17.50;47.60;;;;;;5149255;27;46879;-20
2021/12/02 00:05:07;;;;;;;0.60;0.60;;;17.50;47.60;;;;;;5149352;27;46833;-19
2021/12/02 00:07:33;;;;;;;0.80;0.68;;;17.50;47.70;;;;;;5149017;27;47217;-19
2021/12/02 00:10:01;;;;;;;0.50;0.50;;;17.50;47.70;;;;;;5149278;27;47851;-19
2021/12/02 00:12:27;;;;;;;0.50;0.50;;;17.40;47.70;;;;;;5148907;27;47238;-18
2021/12/02 00:14:54;;;;;;;0.45;0.45;;;17.40;47.70;;;;;;5149342;27;46811;-20
2021/12/02 00:17:24;;;;;;;1.15;0.80;;;17.40;47.80;;;;;;5149505;27;46844;-19
2021/12/02 00:22:53;;;;;;;0.65;0.57;;;17.40;47.80;;;;;;5148514;27;46904;-19
2021/12/02 00:25:21;;;;;;;0.60;0.60;;;17.40;47.90;;;;;;5149220;27;46924;-19
2021/12/02 00:27:47;;;;;;;0.73;0.73;;;17.40;47.90;;;;;;5149071;27;46795;-19
2021/12/02 00:30:14;;;;;;;0.68;0.60;;;17.30;47.90;;;;;;5149015;27;47059;-19
2021/12/02 00:32:41;;;;;;;0.60;0.60;;;17.30;47.90;;;;;;5149176;27;46722;-19
2021/12/02 00:35:08;;;;;;;0.43;0.43;;;17.30;47.90;;;;;;5149157;27;46859;-19
2021/12/02 00:37:37;;;;;;;1.13;0.40;;;17.30;47.90;;;;;;5148553;27;47198;-19
2021/12/02 00:40:05;;;;;;;0.47;0.40;;;17.30;47.90;;;;;;5148870;27;46845;-19
2021/12/02 00:42:33;;;;;;;1.23;0.52;;;17.30;47.90;;;;;;5148618;27;46750;-18
2021/12/02 00:44:59;;;;;;;0.60;0.60;;;17.30;47.90;;;;;;5148996;27;46848;-19
2021/12/02 00:47:26;;;;;;;0.60;0.60;;;17.30;47.90;;;;;;5148726;27;46779;-19
2021/12/02 00:49:53;;;;;;;0.57;0.57;;;17.30;47.90;;;;;;5148808;27;47930;-23
2021/12/02 00:52:20;;;;;;;0.50;0.50;;;17.30;47.90;;;;;;5148384;27;46858;-23
2021/12/02 00:54:48;;;;;;;0.43;0.43;;;17.20;47.90;;;;;;5148728;27;46789;-24
2021/12/02 00:57:14;;;;;;;0.57;0.57;;;17.20;47.90;;;;;;5148771;27;47299;-24
2021/12/02 00:59:41;;;;;;;0.60;0.60;;;17.20;48.00;;;;;;5148535;27;46953;-24
2021/12/02 01:02:09;;;;;;;0.40;0.40;;;17.20;48.00;;;;;;5148113;27;47048;-24
2021/12/02 01:04:35;;;;;;;0.40;0.40;;;17.20;48.00;;;;;;5148244;27;46814;-19
2021/12/02 01:07:02;;;;;;;0.40;0.40;;;17.20;48.00;;;;;;5147777;27;47248;-19
2021/12/02 01:09:29;;;;;;;0.82;0.68;;;17.20;48.00;;;;;;5148442;27;46859;-18
2021/12/02 01:11:58;;;;;;;0.50;0.50;;;17.20;48.10;;;;;;5147942;27;46971;-19
2021/12/02 01:14:24;;;;;;;0.50;0.40;;;17.10;48.10;;;;;;5148349;27;46787;-19
2021/12/02 01:16:51;;;;;;;0.77;0.60;;;17.10;48.10;;;;;;5148108;27;47227;-19
2021/12/02 01:19:18;;;;;;;0.47;0.47;;;17.10;48.10;;;;;;5148068;27;46999;-19
2021/12/02 01:21:45;;;;;;;0.63;0.40;;;17.10;48.20;;;;;;5147614;27;46867;-19
2021/12/02 01:24:13;;;;;;;0.70;0.70;;;17.10;48.20;;;;;;5148262;27;46912;-19
2021/12/02 01:26:39;;;;;;;0.40;0.40;;;17.10;48.20;;;;;;5148227;27;47258;-24
2021/12/02 01:29:07;;;;;;;0.50;0.50;;;17.10;48.30;;;;;;5147767;27;47972;-24
2021/12/02 01:31:35;;;;;;;0.57;0.40;;;17.00;48.20;;;;;;5147728;27;46747;-24
2021/12/02 01:34:05;;;;;;;1.30;0.40;;;17.00;48.20;;;;;;5147761;27;46927;-24
2021/12/02 01:36:33;;;;;;;0.93;0.47;;;17.00;48.20;;;;;;5147899;27;46932;-24
2021/12/02 01:39:00;;;;;;;0.40;0.40;;;17.00;48.20;;;;;;5147750;27;47072;-24
2021/12/02 01:41:27;;;;;;;0.47;0.43;;;17.00;48.20;;;;;;5147761;27;47409;-24
2021/12/02 01:43:54;;;;;;;0.50;0.50;;;17.00;48.20;;;;;;5147970;27;47054;-24
2021/12/02 01:46:23;;;;;;;0.43;0.43;;;17.00;48.20;;;;;;5147998;27;46898;-23
2021/12/02 01:48:58;;;;;;;1.17;0.63;;;16.90;48.20;;;;;;5147356;27;49034;-23
2021/12/02 01:51:24;;;;;;;0.50;0.50;;;16.90;48.10;;;;;;5147685;27;46947;-24
2021/12/02 01:53:52;;;;;;;0.40;0.40;;;16.90;48.20;;;;;;5147533;27;46866;-19
2021/12/02 01:56:19;;;;;;;0.60;0.50;;;16.90;48.20;;;;;;5147670;27;46894;-19
2021/12/02 01:58:46;;;;;;;0.40;0.40;;;16.90;48.20;;;;;;5147447;27;46752;-19
2021/12/02 02:01:22;;;;;;;0.50;0.50;;;16.90;48.20;;;;;;5147442;27;47468;-18
2021/12/02 02:03:49;;;;;;;1.00;0.60;;;16.90;48.20;;;;;;5147485;27;47042;-19
2021/12/02 02:06:16;;;;;;;1.02;0.52;;;16.80;48.20;;;;;;5147426;27;47268;-19
2021/12/02 02:08:45;;;;;;;0.40;0.40;;;16.80;48.20;;;;;;5147350;27;48223;-18
2021/12/02 02:11:12;;;;;;;0.68;0.50;;;16.80;48.20;;;;;;5146919;27;47408;-19
2021/12/02 02:13:41;;;;;;;0.30;0.30;;;16.80;48.20;;;;;;5147424;27;47009;-19
2021/12/02 02:16:08;;;;;;;0.93;0.40;;;16.80;48.20;;;;;;5147376;27;47089;-18
2021/12/02 02:18:36;;;;;;;0.43;0.43;;;16.80;48.30;;;;;;5146992;27;49043;-19
2021/12/02 02:21:08;;;;;;;0.40;0.35;;;16.80;48.30;;;;;;5150858;27;47310;-19
2021/12/02 02:23:38;;;;;;;0.40;0.40;;;16.80;48.30;;;;;;5151170;27;46835;-19
2021/12/02 02:26:05;;;;;;;0.73;0.50;;;16.80;48.30;;;;;;5151212;27;46855;-19
2021/12/02 02:28:32;;;;;;;0.50;0.50;;;16.70;48.20;;;;;;5151148;27;46864;-19
2021/12/02 02:30:59;;;;;;;0.77;0.50;;;16.70;48.30;;;;;;5150707;27;46784;-19
2021/12/02 02:33:33;;;;;;;0.50;0.50;;;16.70;48.30;;;;;;5150761;27;46828;-24
2021/12/02 02:36:00;;;;;;;0.73;0.40;;;16.70;48.30;;;;;;5150927;27;47070;-24
2021/12/02 02:38:28;;;;;;;0.40;0.40;;;16.70;48.40;;;;;;5150674;27;49152;-19
2021/12/02 02:40:57;;;;;;;1.10;0.60;;;16.70;48.40;;;;;;5150664;27;46902;-24
2021/12/02 02:43:25;;;;;;;0.65;0.50;;;16.70;48.40;;;;;;5150876;27;46806;-19
2021/12/02 02:45:52;;;;;;;0.40;0.40;;;16.70;48.40;;;;;;5150871;27;46887;-18
2021/12/02 02:48:18;;;;;;;0.40;0.40;;;16.70;48.40;;;;;;5150404;27;48854;-19
2021/12/02 02:50:45;;;;;;;0.80;0.60;;;16.70;48.40;;;;;;5150745;27;46997;-19
2021/12/02 02:53:16;;;;;;;1.02;0.70;;;16.60;48.40;;;;;;5150422;27;46923;-20
2021/12/02 02:55:49;;;;;;;0.30;0.30;;;16.60;48.40;;;;;;5150454;27;46875;-19
2021/12/02 02:58:25;;;;;;;0.60;0.47;;;16.60;48.50;;;;;;5150222;27;46806;-24
2021/12/02 03:00:59;;;;;;;0.80;0.43;;;16.60;48.50;;;;;;5150496;27;46894;-24
2021/12/02 03:03:33;;;;;;;0.40;0.35;;;16.60;48.50;;;;;;5150572;27;46870;-23
2021/12/02 03:06:13;;;;;;;0.50;0.50;;;16.60;48.50;;;;;;5150499;27;46997;-24
2021/12/02 03:08:44;;;;;;;0.75;0.50;;;16.60;48.50;;;;;;5150060;27;49049;-24
2021/12/02 03:11:13;;;;;;;0.88;0.40;;;16.60;48.60;;;;;;5149547;27;47434;-24
2021/12/02 03:13:47;;;;;;;1.30;0.60;;;16.50;48.50;;;;;;5149358;27;47038;-24
2021/12/02 03:18:58;;;;;;;0.40;0.40;;;16.50;48.50;;;;;;5146491;27;47076;-24
2021/12/02 03:21:25;;;;;;;0.52;0.52;;;16.60;48.50;;;;;;5148825;27;47075;-24
2021/12/02 03:23:52;;;;;;;0.20;0.20;;;16.50;48.50;;;;;;5148731;27;46989;-24
2021/12/02 03:26:20;;;;;;;0.50;0.50;;;16.50;48.50;;;;;;5149207;27;47021;-24
2021/12/02 03:28:47;;;;;;;0.50;0.50;;;16.50;48.60;;;;;;5148820;27;48887;-19
2021/12/02 03:31:14;;;;;;;0.57;0.57;;;16.50;48.60;;;;;;5148162;27;46914;-19
2021/12/02 03:33:41;;;;;;;0.40;0.40;;;16.50;48.50;;;;;;5148715;27;46878;-24
2021/12/02 03:36:08;;;;;;;0.55;0.52;;;16.50;48.60;;;;;;5148902;27;46858;-19
2021/12/02 03:38:35;;;;;;;0.40;0.40;;;16.50;48.60;;;;;;5148400;27;49068;-24
2021/12/02 03:41:01;;;;;;;0.40;0.40;;;16.50;48.60;;;;;;5148314;27;46986;-24
2021/12/02 03:43:33;;;;;;;0.82;0.40;;;16.50;48.60;;;;;;5148878;27;46913;-24
2021/12/02 03:46:00;;;;;;;0.45;0.45;;;16.50;48.60;;;;;;5148476;27;46900;-24
2021/12/02 03:48:27;;;;;;;0.45;0.30;;;16.50;48.50;;;;;;5148480;27;48024;-24
2021/12/02 03:50:53;;;;;;;0.45;0.45;;;16.50;48.50;;;;;;5148110;27;47000;-18
2021/12/02 03:53:20;;;;;;;0.70;0.70;;;16.50;48.40;;;;;;5148480;27;46941;-19
2021/12/02 03:55:47;;;;;;;0.60;0.47;;;16.50;48.50;;;;;;5148182;27;46888;-18
2021/12/02 03:58:13;;;;;;;0.47;0.40;;;16.50;48.50;;;;;;5148363;27;47126;-24
2021/12/02 04:00:41;;;;;;;0.30;0.30;;;16.50;48.60;;;;;;5148116;27;47235;-24
2021/12/02 04:03:08;;;;;;;0.55;0.50;;;16.50;48.60;;;;;;5148283;27;47012;-24
2021/12/02 04:05:35;;;;;;;0.50;0.50;;;16.50;48.60;;;;;;5148219;27;47178;-23
2021/12/02 04:08:01;;;;;;;0.40;0.40;;;16.50;48.60;;;;;;5148150;27;48358;-24
2021/12/02 04:10:28;;;;;;;0.50;0.50;;;16.40;48.60;;;;;;5148063;27;46933;-24
2021/12/02 04:13:04;;;;;;;0.43;0.43;;;16.40;48.60;;;;;;5109114;27;1100308;-24
2021/12/02 04:15:33;;;;;;;0.47;0.30;;;16.40;48.60;;;;;;5149346;27;46932;-24
2021/12/02 04:18:01;;;;;;;1.13;0.50;;;16.40;48.70;;;;;;5149148;27;47852;-24
2021/12/02 04:20:28;;;;;;;0.65;0.38;;;16.40;48.70;;;;;;5149090;27;47094;-23
2021/12/02 04:22:56;;;;;;;0.30;0.30;;;16.40;48.70;;;;;;5149095;27;46833;-24
2021/12/02 04:25:22;;;;;;;0.50;0.50;;;16.40;48.80;;;;;;5149392;27;46850;-23
2021/12/02 04:27:50;;;;;;;0.47;0.47;;;16.40;48.80;;;;;;5148967;27;48913;-19
2021/12/02 04:30:18;;;;;;;0.50;0.50;;;16.40;48.80;;;;;;5149035;27;46829;-19
2021/12/02 04:32:45;;;;;;;0.90;0.45;;;16.30;48.80;;;;;;5148597;27;46884;-18
2021/12/02 04:35:13;;;;;;;1.33;0.63;;;16.30;48.80;;;;;;5149166;27;46944;-24
2021/12/02 04:37:40;;;;;;;0.35;0.35;;;16.30;48.80;;;;;;5148611;27;46934;-19
2021/12/02 04:40:08;;;;;;;0.30;0.30;;;16.30;48.80;;;;;;5148684;27;47074;-24
2021/12/02 04:42:34;;;;;;;0.70;0.57;;;16.30;48.80;;;;;;5147446;27;46895;-24
2021/12/02 04:45:01;;;;;;;0.50;0.50;;;16.40;48.80;;;;;;5149039;27;46897;-19
2021/12/02 04:47:28;;;;;;;1.50;0.70;;;16.40;48.80;;;;;;5148463;27;48947;-19
2021/12/02 04:49:54;;;;;;;0.88;0.73;;;16.40;48.80;;;;;;5148642;27;46867;-19
2021/12/02 04:52:23;;;;;;;0.28;0.28;;;16.40;48.80;;;;;;5148712;27;46872;-18
2021/12/02 04:54:49;;;;;;;0.50;0.50;;;16.40;48.80;;;;;;5148641;27;46848;-23
2021/12/02 04:57:16;;;;;;;0.60;0.60;;;16.40;48.80;;;;;;5148082;27;47766;-24
2021/12/02 04:59:43;;;;;;;0.47;0.40;;;16.40;48.80;;;;;;5148570;27;46952;-18
2021/12/02 05:02:09;;;;;;;0.45;0.45;;;16.40;48.80;;;;;;5148092;27;46783;-18
2021/12/02 05:04:36;;;;;;;1.15;0.60;;;16.40;48.80;;;;;;5148952;27;46862;-23
2021/12/02 05:07:03;;;;;;;1.05;0.50;;;16.40;48.80;;;;;;5148162;27;46897;-24
2021/12/02 05:09:31;;;;;;;0.85;0.60;;;16.40;48.80;;;;;;5148389;27;47007;-24
2021/12/02 05:11:58;;;;;;;0.65;0.43;;;16.40;48.80;;;;;;5147486;27;46832;-24
2021/12/02 05:14:24;;;;;;;0.50;0.50;;;16.40;48.80;;;;;;5148534;27;46828;-24
2021/12/02 05:16:51;;;;;;;0.38;0.38;;;16.40;49.40;;;;;;5148149;27;47944;-18
2021/12/02 05:19:18;;;;;;;1.00;0.60;;;16.40;48.70;;;;;;5147800;27;46881;-18
2021/12/02 05:21:45;;;;;;;1.00;0.52;;;16.30;48.80;;;;;;5147944;27;46821;-18
2021/12/02 05:24:11;;;;;;;0.60;0.52;;;16.30;48.80;;;;;;5148149;27;47261;-19
2021/12/02 05:26:39;;;;;;;1.10;0.40;;;16.30;48.80;;;;;;5147899;27;48029;-22
2021/12/02 05:29:06;;;;;;;0.75;0.50;;;16.30;48.80;;;;;;5148140;27;46971;-18
2021/12/02 05:31:33;;;;;;;0.75;0.50;;;16.30;48.90;;;;;;5148166;27;47045;-18
2021/12/02 05:33:59;;;;;;;1.13;0.50;;;16.30;48.90;;;;;;5148539;27;46928;-19
2021/12/02 05:36:26;;;;;;;0.68;0.50;;;16.30;48.90;;;;;;5147828;27;48061;-18
2021/12/02 05:38:53;;;;;;;0.60;0.60;;;16.30;49.00;;;;;;5147901;27;46783;-24
2021/12/02 05:41:19;;;;;;;0.65;0.60;;;16.20;48.90;;;;;;5147511;27;46842;-24
2021/12/02 05:43:48;;;;;;;1.35;0.40;;;16.20;49.00;;;;;;5148075;27;46972;-25
2021/12/02 05:46:14;;;;;;;0.90;0.50;;;16.20;49.00;;;;;;5147302;27;46878;-19
2021/12/02 05:48:41;;;;;;;1.48;0.60;;;16.20;48.90;;;;;;5147559;27;46861;-19
2021/12/02 05:51:08;;;;;;;0.75;0.50;;;16.20;48.90;;;;;;5147626;27;46873;-24
2021/12/02 05:53:34;;;;;;;0.77;0.45;;;16.20;48.90;;;;;;5147593;27;46817;-24
2021/12/02 05:56:01;;;;;;;1.48;0.50;;;16.30;49.00;;;;;;5147329;27;47160;-24
2021/12/02 05:58:28;;;;;;;1.50;0.50;;;16.30;49.00;;;;;;5147694;27;47242;-25
2021/12/02 06:00:56;;;;;;;0.40;0.38;;;16.30;49.00;;;;;;5147545;27;46866;-19
2021/12/02 06:03:23;;;;;;;0.57;0.50;;;16.20;48.90;;;;;;5147766;27;47162;-19
2021/12/02 06:05:49;;;;;;;1.10;0.55;;;16.20;49.00;;;;;;5147336;27;47956;-18
2021/12/02 06:08:16;;;;;;;0.50;0.50;;;16.20;48.90;;;;;;5147670;27;47156;-18
2021/12/02 06:10:43;;;;;;;1.40;0.50;;;16.20;49.00;;;;;;5147399;27;46998;-18
2021/12/02 06:13:10;;;;;;;0.85;0.40;;;16.20;49.00;;;;;;5147388;27;47184;-19
2021/12/02 06:15:37;;;;;;;0.52;0.40;;;16.20;49.00;;;;;;5146979;27;48848;-19
2021/12/02 06:18:05;;;;;;;0.98;0.50;;;16.20;49.00;;;;;;5147331;27;47473;-19
2021/12/02 06:20:32;;;;;;;0.85;0.60;;;16.20;49.10;;;;;;5147336;27;47014;-19
2021/12/02 06:22:58;;;;;;;1.08;0.73;;;16.20;49.00;;;;;;5147148;27;46871;-19
2021/12/02 06:28:10;;;;;;;0.50;0.50;;;16.20;49.00;;;;;;5144392;27;46982;-24
2021/12/02 06:30:36;;;;;;;0.40;0.40;;;16.20;49.00;;;;;;5146874;27;46845;-24
2021/12/02 06:33:04;;;;;;;0.40;0.40;;;16.20;49.10;;;;;;5147501;27;46885;-24
2021/12/02 06:35:31;;;;;;;0.60;0.43;;;16.20;49.00;;;;;;5146802;27;46925;-24
2021/12/02 06:37:58;;;;;;;0.85;0.50;;;16.20;49.00;;;;;;5147088;27;47260;-25
2021/12/02 06:40:24;;;;;;;0.75;0.70;;;16.20;49.10;;;;;;5146711;27;46893;-24
2021/12/02 06:42:51;;;;;;;1.35;0.73;;;16.10;49.10;;;;;;5146631;27;47154;-18
2021/12/02 06:45:18;;;;;;;0.52;0.50;;;16.10;49.10;;;;;;5146460;27;47649;-19
2021/12/02 06:47:45;;;;;;;0.65;0.57;;;16.10;49.10;;;;;;5147016;27;48044;-23
2021/12/02 06:50:16;;;;;;;1.38;0.60;;;16.10;49.10;;;;;;5144891;27;47060;-23
2021/12/02 06:52:43;;;;;;;0.57;0.57;;;16.10;49.10;;;;;;5145269;27;46840;-23
2021/12/02 06:55:10;;;;;;;0.40;0.38;;;16.10;49.10;;;;;;5145997;27;47924;-22
2021/12/02 06:57:37;;;;;;;0.73;0.50;;;16.10;49.10;;;;;;5146695;27;46903;-17
2021/12/02 07:00:07;;;;;;;0.60;0.50;;;16.10;49.10;;;;;;5146681;27;46882;-18
2021/12/02 07:02:34;;;;;;;0.47;0.40;;;16.10;49.20;;;;;;5146285;27;46865;-24
2021/12/02 07:05:02;;;;;;;0.63;0.50;;;16.10;49.20;;;;;;5146609;27;47946;-24
2021/12/02 07:07:34;;;;;;;0.68;0.68;;;16.10;49.00;;;;;;5149834;27;47120;-25
2021/12/02 07:10:02;;;;;;;1.05;0.60;;;16.10;49.10;;;;;;5150565;27;46864;-24
2021/12/02 07:12:32;;;;;;;1.88;0.93;;;16.10;49.10;;;;;;5149448;27;46840;-23
2021/12/02 07:15:01;;;;;;;0.98;0.82;;;16.10;49.20;;;;;;5149891;27;48258;-24
2021/12/02 07:17:28;;;;;;;1.85;1.23;;;16.10;49.20;;;;;;5149563;27;47038;-24
2021/12/02 07:19:55;;;;;;;2.10;1.48;;;16.10;49.10;;;;;;5149990;27;46874;-24
2021/12/02 07:22:22;;;;;;;2.00;1.67;;;16.10;49.10;;;;;;5148694;27;46823;-24
2021/12/02 07:24:50;;;;;;;1.92;1.55;;;16.10;49.10;;;;;;5149187;27;48858;-25
2021/12/02 07:27:16;;;;;;;2.13;1.75;;;16.10;49.20;;;;;;5149981;27;46881;-23
2021/12/02 07:29:43;;;;;;;1.80;1.70;;;16.10;49.20;;;;;;5149734;27;46907;-24
2021/12/02 07:32:11;;;;;;;2.42;1.88;;;16.10;49.10;;;;;;5150292;27;47021;-24
2021/12/02 07:34:37;;;;;;;3.08;2.30;;;16.10;49.20;;;;;;5149775;27;47963;-23
2021/12/02 07:37:04;;;;;;;3.10;2.25;;;16.10;49.10;;;;;;5149698;27;47073;-24
2021/12/02 07:39:31;;;;;;;3.85;2.17;;;16.10;49.20;;;;;;5149952;27;46849;-24
2021/12/02 07:41:59;;;;;;;3.05;1.90;;;16.10;49.10;;;;;;5149661;27;46903;-24
2021/12/02 07:44:26;;;;;;;2.55;2.35;;;16.10;49.10;;;;;;5149796;27;47910;-23
2021/12/02 07:46:55;;;;;;;3.20;2.50;;;16.10;49.10;;;;;;5149632;27;46742;-24
2021/12/02 07:49:22;;;;;;;4.35;2.83;;;16.10;49.10;;;;;;5149699;27;47040;-24
2021/12/02 07:51:49;;;;;;;6.10;3.22;;;16.10;49.10;;;;;;5149334;27;47284;-24
2021/12/02 07:54:17;;;;;;;4.28;2.97;;;16.10;49.10;;;;;;5149563;27;46862;-24
2021/12/02 07:56:43;;;;;;;3.65;2.85;;;16.10;49.10;;;;;;5149443;27;46895;-33
2021/12/02 07:59:14;;;;;;;4.57;3.30;;;16.10;49.10;;;;;;5149241;27;46837;-23
2021/12/02 08:01:40;;;;;;;7.38;3.25;;;16.10;49.10;;;;;;5149262;27;46846;-23
2021/12/02 08:04:07;;;;;;;6.75;3.60;;;16.10;49.10;;;;;;5149325;27;48058;-24
2021/12/02 08:06:34;;;;;;;4.55;3.25;;;16.10;49.10;;;;;;5148831;27;46896;-23
2021/12/02 08:09:01;;;;;;;6.30;3.63;;;16.10;49.10;;;;;;5149341;27;46745;-23
2021/12/02 08:11:27;;;;;;;7.00;4.20;;;16.00;49.00;;;;;;5148698;27;47024;-24
2021/12/02 08:13:55;;;;;;;5.80;3.75;;;16.00;49.10;;;;;;5148874;27;47989;-24
2021/12/02 08:16:23;;;;;;;5.75;4.18;;;16.00;49.10;;;;;;5148027;27;46947;-23
2021/12/02 08:18:49;;;;;;;4.63;3.75;;;16.00;49.10;;;;;;5149051;27;46804;-23
2021/12/02 08:21:16;;;;;;;6.68;4.03;;;16.00;49.20;;;;;;5149252;27;47161;-24
2021/12/02 08:23:43;;;;;;;5.82;3.95;;;16.00;49.20;;;;;;5149063;27;48782;-24
2021/12/02 08:26:12;;;;;;;7.65;3.85;;;16.00;49.20;;;;;;5148720;27;47254;-24
2021/12/02 08:28:38;;;;;;;5.60;3.97;;;16.00;49.10;;;;;;5148631;27;46931;-24
2021/12/02 08:31:05;;;;;;;5.72;3.92;;;16.00;49.20;;;;;;5148802;27;46966;-23
2021/12/02 08:33:33;;;;;;;6.70;4.50;;;16.00;49.10;;;;;;5148500;27;47962;-24
2021/12/02 08:36:00;;;;;;;6.18;4.63;;;16.00;49.10;;;;;;5148646;27;46977;-23
2021/12/02 08:38:32;;;;;;;7.43;4.28;;;16.00;49.10;;;;;;5148629;27;46869;-18
2021/12/02 08:40:58;;;;;;;8.07;4.28;;;16.00;49.10;;;;;;5148823;27;46833;-19
2021/12/02 08:43:25;;;;;;;5.72;4.22;;;16.00;49.10;;;;;;5148677;27;47940;-19
2021/12/02 08:45:52;;;;;;;6.97;4.47;;;16.00;49.10;;;;;;5148668;27;46925;-18
2021/12/02 08:48:19;;;;;;;6.70;4.43;;;16.00;49.10;;;;;;5148791;27;46841;-23
2021/12/02 08:50:47;;;;;;;6.80;4.05;;;16.00;49.10;;;;;;5148630;27;46859;-23
2021/12/02 08:53:14;;;;;;;5.38;4.43;;;16.00;49.20;;;;;;5148585;27;47862;-18
2021/12/02 08:55:41;;;;;;;4.28;3.70;;;16.00;49.10;;;;;;5148409;27;47252;-18
2021/12/02 08:58:09;;;;;;;5.75;3.95;;;16.00;49.10;;;;;;5148643;27;46802;-18
2021/12/02 09:00:36;;;;;;;6.22;4.43;;;16.00;49.10;;;;;;5148257;27;47120;-19
2021/12/02 09:03:03;;;;;;;6.05;4.40;;;16.00;49.10;;;;;;5148240;27;47886;-18
2021/12/02 09:05:30;;;;;;;6.63;4.57;;;16.00;49.10;;;;;;5148072;27;46874;-24
2021/12/02 09:07:58;;;;;;;10.45;4.47;;;16.00;49.10;;;;;;5148318;27;46934;-23
2021/12/02 09:10:26;;;;;;;5.75;4.57;;;16.00;49.20;;;;;;5148406;27;46914;-23
2021/12/02 09:12:52;;;;;;;5.88;4.20;;;16.00;49.20;;;;;;5147611;27;48177;-24
2021/12/02 09:15:19;;;;;;;6.68;4.80;;;16.20;49.00;;;;;;5148214;27;47266;-24
2021/12/02 09:17:46;;;;;;;7.00;4.78;;;16.40;48.80;;;;;;5148052;27;46828;-23
2021/12/02 09:20:15;;;;;;;10.70;4.97;;;16.60;48.40;;;;;;5148507;27;46940;-24
2021/12/02 09:22:41;;;;;;;13.50;5.00;;;16.80;47.90;;;;;;5147697;27;47126;-24
2021/12/02 09:25:10;;;;;;;9.40;5.15;;;17.00;47.50;;;;;;5147160;27;46877;-24
2021/12/02 09:27:37;;;;;;;10.68;4.78;;;17.20;47.10;;;;;;5146829;27;46918;-24
2021/12/02 09:30:07;;;;;;;8.20;5.07;;;17.30;46.80;;;;;;5147984;27;47072;-23
2021/12/02 09:32:34;;;;;;;8.60;4.80;;;17.40;46.50;;;;;;5147309;27;47858;-23
2021/12/02 09:35:01;;;;;;;7.22;4.50;;;17.50;46.30;;;;;;5147904;27;47109;-23
2021/12/02 09:37:28;;;;;;;9.80;4.53;;;17.60;46.20;;;;;;5147524;27;46922;-24
2021/12/02 09:39:55;;;;;;;8.25;4.70;;;17.60;46.10;;;;;;5147902;27;47138;-24
2021/12/02 09:42:23;;;;;;;10.23;5.13;;;17.70;46.00;;;;;;5147166;27;47892;-23
2021/12/02 09:44:54;;;;;;;6.25;4.53;;;17.70;46.00;;;;;;5147537;27;47011;-23
2021/12/02 09:47:21;;;;;;;9.07;5.22;;;17.70;45.90;;;;;;5147492;27;46836;-23
2021/12/02 09:49:47;;;;;;;7.50;4.90;;;17.70;45.90;;;;;;5147627;27;46989;-18
2021/12/02 09:52:16;;;;;;;8.27;5.20;;;17.70;45.90;;;;;;5147313;27;48886;-18
2021/12/02 09:54:46;;;;;;;7.00;4.78;;;17.70;45.80;;;;;;5147407;27;47469;-18
2021/12/02 09:57:16;;;;;;;8.90;5.22;;;17.70;45.90;;;;;;5147683;27;46913;-18
2021/12/02 09:59:50;;;;;;;10.07;4.95;;;17.70;45.90;;;;;;5147491;27;47339;-18
2021/12/02 10:02:18;;;;;;;7.18;4.70;;;17.70;45.90;;;;;;5147367;27;48108;-19
2021/12/02 10:04:49;;;;;;;7.80;4.60;;;17.70;45.90;;;;;;5147165;27;46812;-18
2021/12/02 10:07:19;;;;;;;7.00;4.47;;;17.70;46.00;;;;;;5147294;27;47069;-17
2021/12/02 10:09:54;;;;;;;6.60;4.72;;;17.60;46.00;;;;;;5147840;27;47011;-18
2021/12/02 10:12:22;;;;;;;7.22;4.28;;;17.60;46.10;;;;;;5146932;27;49044;-18
2021/12/02 10:14:52;;;;;;;7.68;4.70;;;17.60;46.20;;;;;;5147368;27;46939;-18
2021/12/02 10:17:22;;;;;;;7.90;4.43;;;17.60;46.20;;;;;;5147090;27;46812;-18
2021/12/02 10:20:01;;;;;;;6.40;4.60;;;17.60;46.30;;;;;;5147308;27;47291;-18
2021/12/02 10:22:28;;;;;;;5.75;4.20;;;17.60;46.30;;;;;;5147193;27;47855;-17
2021/12/02 10:24:55;;;;;;;7.25;4.40;;;17.60;46.40;;;;;;5146918;27;46819;-18
2021/12/02 10:27:21;;;;;;;7.35;4.15;;;17.50;46.40;;;;;;5146828;27;46808;-18
2021/12/02 10:29:50;;;;;;;5.80;4.60;;;17.50;46.50;;;;;;5147173;27;46932;-23
2021/12/02 10:32:20;;;;;;;6.13;4.25;;;17.50;46.50;;;;;;5146928;27;47424;-23
2021/12/02 10:34:48;;;;;;;6.05;3.78;;;17.50;46.60;;;;;;5147121;27;46908;-19
2021/12/02 10:37:17;;;;;;;7.25;4.60;;;17.50;46.60;;;;;;5146481;27;46895;-18
2021/12/02 10:39:54;;;;;;;4.85;4.13;;;17.50;46.70;;;;;;5147204;27;46885;-18
2021/12/02 10:42:21;;;;;;;17.13;4.85;;;17.40;46.70;;;;;;5150354;27;47947;-18
2021/12/02 10:44:48;;;;;;;6.63;4.53;;;17.40;47.40;;;;;;5149573;27;46884;-19
2021/12/02 10:47:15;;;;;;;10.07;5.35;;;17.40;47.40;;;;;;5150042;27;47073;-18
2021/12/02 10:49:44;;;;;;;10.13;4.68;;;17.50;47.90;;;;;;5150510;27;47174;-18
2021/12/02 10:52:13;;;;;;;11.77;6.00;;;17.50;48.00;;;;;;5149863;27;47837;-18
2021/12/02 10:54:45;;;;;;;10.00;7.55;;;17.50;48.00;;;;;;5149538;27;47001;-18
2021/12/02 10:57:12;;;;;;;13.10;7.75;;;17.50;47.50;;;;;;5149516;27;47043;-17
2021/12/02 10:59:42;;;;;;;10.13;7.50;;;17.50;47.60;;;;;;5149917;27;46900;-18
2021/12/02 11:02:16;;;;;;;10.98;8.10;;;17.50;47.50;;;;;;5149258;27;49568;-18
2021/12/02 11:04:45;;;;;;;9.23;6.50;;;17.50;47.40;;;;;;5149794;27;47041;-18
2021/12/02 11:07:20;;;;;;;10.77;8.43;;;17.50;48.20;;;;;;5149977;27;47292;-17
2021/12/02 11:09:48;;;;;;;12.07;7.97;;;17.40;47.70;;;;;;5150259;27;46872;-18
2021/12/02 11:12:17;;;;;;;18.77;7.80;;;17.40;48.20;;;;;;5149440;27;49069;-17
2021/12/02 11:14:53;;;;;;;11.80;8.30;;;17.40;48.00;;;;;;5149877;27;47077;-18
2021/12/02 11:17:20;;;;;;;13.52;9.85;;;17.40;48.00;;;;;;5150103;27;47016;-17
2021/12/02 11:19:49;;;;;;;14.18;8.23;;;17.40;47.90;;;;;;5150488;27;47082;-18
2021/12/02 11:22:17;;;;;;;9.70;8.75;;;17.40;47.90;;;;;;5149826;27;48791;-17
2021/12/02 11:24:45;;;;;;;13.20;9.15;;;17.30;47.80;;;;;;5149610;27;46908;-18
2021/12/02 11:27:14;;;;;;;9.95;8.90;;;17.30;47.80;;;;;;5150036;27;46975;-17
2021/12/02 11:30:09;;;;;;;11.52;8.75;;;17.30;47.80;;;;;;5150101;27;47160;-17
2021/12/02 11:32:39;;;;;;;13.15;8.95;;;17.30;47.80;;;;;;5144654;27;48905;-18
2021/12/02 11:35:12;;;;;;;11.95;8.75;;;17.20;47.50;;;;;;5170453;27;47196;-18
2021/12/02 11:37:39;;;;;;;12.18;7.95;;;17.20;47.80;;;;;;5169778;27;47146;-18
2021/12/02 11:40:09;;;;;;;8.80;7.90;;;17.20;47.90;;;;;;5170787;27;46943;-18
2021/12/02 11:42:37;;;;;;;9.52;8.23;;;17.20;47.80;;;;;;5170008;27;48626;-18
2021/12/02 11:45:04;;;;;;;13.43;8.35;;;17.10;48.40;;;;;;5170439;27;46942;-18
2021/12/02 11:47:31;;;;;;;9.30;7.57;;;17.10;47.90;;;;;;5170472;27;46881;-17
2021/12/02 11:49:58;;;;;;;8.68;7.78;;;17.10;47.90;;;;;;5170481;27;46909;-18
2021/12/02 11:52:27;;;;;;;10.60;7.82;;;17.00;48.00;;;;;;5170104;27;47876;-18
2021/12/02 11:54:55;;;;;;;8.90;7.50;;;17.00;48.00;;;;;;5169300;27;46872;-18
2021/12/02 11:57:22;;;;;;;9.93;7.78;;;17.00;48.00;;;;;;5170209;27;46902;-18
2021/12/02 11:59:49;;;;;;;9.70;7.25;;;17.00;48.10;;;;;;5170673;27;46648;-23
2021/12/02 12:02:17;;;;;;;8.77;7.13;;;17.00;48.10;;;;;;5170081;27;48887;-22
2021/12/02 12:04:55;;;;;;;8.75;7.30;;;16.90;48.10;;;;;;5170420;27;46942;-23
2021/12/02 12:07:22;;;;;;;7.65;6.63;;;16.90;48.10;;;;;;5169131;27;46789;-24
2021/12/02 12:09:52;;;;;;;8.23;7.07;;;16.90;48.20;;;;;;5168925;27;47015;-23
2021/12/02 12:12:19;;;;;;;7.40;6.65;;;16.90;48.20;;;;;;5167329;27;48204;-23
2021/12/02 12:14:48;;;;;;;8.98;6.30;;;16.80;48.20;;;;;;5168264;27;47156;-22
2021/12/02 12:17:17;;;;;;;7.38;6.28;;;16.80;48.20;;;;;;5168369;27;47065;-23
2021/12/02 12:19:44;;;;;;;7.82;6.57;;;16.80;48.20;;;;;;5168532;27;47264;-22
2021/12/02 12:22:13;;;;;;;6.55;5.88;;;16.80;48.20;;;;;;5168219;27;47250;-23
2021/12/02 12:24:43;;;;;;;7.93;6.15;;;16.80;48.20;;;;;;5169675;27;47179;-23
2021/12/02 12:27:16;;;;;;;6.60;5.90;;;16.70;48.20;;;;;;5170132;27;46901;-23
2021/12/02 12:29:42;;;;;;;6.82;6.03;;;16.70;48.20;;;;;;5170286;27;46837;-23
2021/12/02 12:32:25;;;;;;;6.50;5.85;;;16.70;48.20;;;;;;5169586;27;48769;-23
2021/12/02 12:34:56;;;;;;;6.53;5.80;;;16.70;48.30;;;;;;5170036;27;46960;-23
2021/12/02 12:38:02;;;;;;;6.05;5.45;;;16.60;48.20;;;;;;5169399;27;46737;-18
2021/12/02 12:40:46;;;;;;;6.85;5.30;;;16.60;48.20;;;;;;5169833;27;47124;-17
2021/12/02 12:43:21;;;;;;;6.10;5.50;;;16.60;48.20;;;;;;5169709;27;46879;-17
2021/12/02 12:45:48;;;;;;;6.20;5.15;;;16.60;48.30;;;;;;5169708;27;46999;-18
2021/12/02 12:48:28;;;;;;;5.32;4.82;;;16.60;48.20;;;;;;5170094;27;46919;-19
2021/12/02 12:50:56;;;;;;;6.45;5.13;;;16.50;48.20;;;;;;5169750;27;46854;-22
2021/12/02 12:53:36;;;;;;;5.25;4.75;;;16.50;48.20;;;;;;5169293;27;47933;-23
2021/12/02 12:56:05;;;;;;;5.20;4.45;;;16.50;48.20;;;;;;5169484;27;46959;-18
2021/12/02 12:58:34;;;;;;;5.22;4.72;;;16.50;48.20;;;;;;5169608;27;46752;-18